Hervé Chauve-Laffay

Hervé Chauve-Laffay

Statistiques 2026

  • Courses courues : 14
  • Nb de victoires : 1
  • Nb de places : 1
  • Écart gagnant : 12
  • Réussite à la gagne : 7%
  • Réussite à la place : 7%
Musique : 0a Da 7a Da 4a 4a 6a 9a Da 0a 0a 5a 1a 5a 8a (25) Da 2a 2a
DateRangCatégorieAlloc.Dist.HippodromeChevalRed. KmSpé.
10/01/14 3 Trot 36 000€ 2 925m Cagnes Sur Mer Ariane de Caponet 1'16"4 Attelé lire

Est venue prendre la tête après les tribunes mais, a dû s'avouer vaincue pour finir.

12/01/14 0 Trot 22 000€ 2 700m Lyon La Soie Vanina Loulou Attelé
12/01/14 0 Trot 16 000€ 2 700m Lyon La Soie Annibal Loulou Attelé
12/01/14 2 Trot 16 000€ 2 050m Lyon La Soie Brume de Genetine 1'19"3 Attelé
19/01/14 0 Trot 15 000€ 2 725m Lyon La Soie Vega Mesloise Attelé
26/01/14 6 Trot 16 000€ 2 075m Saint Galmier Valmio Loulou 1'16"3 Attelé
09/02/14 6 Trot 13 000€ 2 075m Lyon La Soie Valmio Loulou 1'17"6 Attelé
28/02/14 4 Trot 44 000€ 2 925m Cagnes Sur Mer Ariane de Caponet 1'16"4 Attelé lire

Contrainte de progresser en épaisseur au dernier passage en face, a su très bien soutenir son effort jusqu'au bout.

28/02/14 3 Trot 18 000€ 2 150m Cagnes Sur Mer Brume de Genetine 1'18"8 Attelé lire

Attentiste au sein du peloton, a progressé en face puis a su bien soutenir son effort jusqu'au bout.

02/03/14 2 Trot 11 000€ 2 225m Feurs Brillant Loulou 1'20"9 Attelé
02/03/14 3 Trot 13 000€ 2 850m Feurs Annibal Loulou 1'20"4 Attelé
10/03/14 1 Trot 14 000€ 2 600m Chatillon Annibal Loulou 1'20"8 Attelé
13/03/14 1 Trot 22 000€ 2 850m Lyon Parilly Brume de Genetine 1'21"2 Attelé
13/03/14 7 Trot 22 000€ 2 850m Lyon Parilly Vanina Loulou 1'17"8 Attelé
14/03/14 4 Trot 56 000€ 2 925m Cagnes Sur Mer Ariane de Caponet 1'16"3 Attelé
27/04/14 D Trot 10 000€ 2 200m Oraison Best Of Loulou Attelé
27/04/14 D Trot 13 000€ 2 650m Oraison Voile d'Espoir Attelé
12/05/14 5 Trot 24 000€ 2 850m Vichy Brume de Genetine 1'21"0 Attelé
15/05/14 6 Trot 38 000€ 2 875m Vichy Ariane de Caponet 1'15"9 Attelé lire

N'a jamais pu jouer le moindre rôle utile.

17/05/14 D Trot 28 000€ 2 875m Vichy Titan d'Abo Attelé
17/05/14 3 Trot 23 000€ 2 800m Vichy Vanina Loulou 1'17"4 Attelé
22/05/14 4 Trot 38 000€ 2 150m Vichy Ariane de Caponet 1'15"9 Attelé
23/05/14 D Trot 14 000€ 2 625m Moulins Annibal Loulou Attelé
24/05/14 4 Trot 11 000€ 2 225m Feurs Best Of Loulou 1'20"0 Attelé
24/05/14 D Trot 14 000€ 2 850m Feurs Voile d'Espoir Attelé
24/05/14 1 Trot 13 000€ 2 850m Feurs Apache Yankee 1'18"5 Attelé
07/06/14 4 Trot 25 000€ 2 850m Feurs Valmio Loulou 1'17"1 Attelé
07/06/14 D Trot 20 000€ 2 850m Feurs Boccador Attelé
12/06/14 0 Trot 28 000€ 2 875m Vichy Titan d'Abo Attelé
12/06/14 7 Trot 24 000€ 2 800m Vichy Annibal Loulou 1'18"7 Attelé
15/06/14 D Trot 10 000€ 2 800m Bollene Trocadero Vrie Attelé
15/06/14 5 Trot 13 000€ 2 825m Bollene Vega Mesloise Attelé
15/06/14 D Trot 17 000€ 2 800m Bollene Nevada Ors Attelé
16/06/14 3 Trot 25 000€ 2 850m Vichy Brume de Genetine 1'18"3 Attelé lire

Longtemps attentiste en queue de peloton, a su gagner du terrain tout au long de la phase finale et a bien conclu.

16/06/14 7 Trot 38 000€ 2 200m Vichy Ariane de Caponet 1'15"5 Attelé lire

Après avoir figuré en léger retrait, n'a pas été capable de pouvoir changer de rythme dans la phase finale.

19/06/14 3 Trot 19 000€ 2 650m Hyeres Apache Yankee 1'17"8 Attelé
26/06/14 6 Trot 30 000€ 2 850m Vichy Annibal Loulou 1'17"8 Attelé
29/06/14 2 Trot 25 000€ 2 700m Saint Galmier Ariane de Caponet 1'16"7 Attelé
30/06/14 5 Trot 24 000€ 2 150m Vichy Vanina Loulou 1'16"0 Attelé
01/07/14 9 Trot 20 000€ 3 000m Marseille Borely Apache Yankee 1'20"1 Attelé
02/07/14 5 Trot 32 000€ 2 850m Vichy Brume de Genetine 1'18"9 Attelé lire

Après avoir trotté en troisième position, a très nettement accusé le coup depuis la sortie du tournant final.

04/07/14 4 Trot 17 000€ 2 850m Feurs Best Of Loulou 1'21"1 Attelé
10/07/14 2 Trot 25 000€ 2 225m Feurs Ariane de Caponet 1'14"7 Attelé
10/07/14 D Trot 20 000€ 2 700m Feurs Upsalin des Baults Attelé
10/07/14 4 Trot 22 000€ 2 850m Feurs Annibal Loulou 1'20"0 Attelé
13/07/14 4 Trot 14 000€ 2 675m L'Isle Sur Sorgue Vanina Loulou 1'18"1 Attelé
13/07/14 3 Trot 20 000€ 2 650m L'Isle Sur Sorgue Vega Mesloise 1'17"7 Attelé
14/07/14 4 Trot 13 000€ 2 450m Jullianges Athos des Baults Attelé
19/07/14 D Trot 21 000€ 2 700m Feurs Apache Yankee Attelé
19/07/14 5 Trot 22 000€ 2 050m Feurs Upsalin des Baults 1'14"7 Attelé